createdAt,value
2022-09-28T00:01:24.001Z,98555.27
2022-09-28T00:03:54.597Z,98556.64
2022-09-28T00:06:27.235Z,98548.69
2022-09-28T00:08:55.098Z,98546.25
2022-09-28T00:11:29.227Z,98545.17
2022-09-28T00:14:02.458Z,98545.95
2022-09-28T00:16:34.508Z,98544.77
2022-09-28T00:19:12.234Z,98549.18
2022-09-28T00:21:41.835Z,98544.99
2022-09-28T00:24:13.272Z,98540.21
2022-09-28T00:26:42.171Z,98537.63
2022-09-28T00:29:29.190Z,98535.41
2022-09-28T00:32:03.140Z,98528.48
2022-09-28T00:34:38.181Z,98527.17
2022-09-28T00:37:09.045Z,98526.36
2022-09-28T00:39:38.707Z,98520.92
2022-09-28T00:42:32.955Z,98513.78
2022-09-28T00:45:04.107Z,98515.58
2022-09-28T00:47:39.651Z,98515.05
2022-09-28T00:50:21.267Z,98508.67
2022-09-28T00:53:01.794Z,98500.05
2022-09-28T00:55:40.071Z,98500.89
2022-09-28T00:58:13.195Z,98499.33
2022-09-28T01:00:41.155Z,98502.89
2022-09-28T01:03:14.364Z,98504.70
2022-09-28T01:05:42.309Z,98498.46
2022-09-28T01:08:11.962Z,98499.81
2022-09-28T01:10:40.986Z,98505.21
2022-09-28T01:13:09.034Z,98503.88
2022-09-28T01:15:49.212Z,98500.75
2022-09-28T01:18:22.696Z,98500.64
2022-09-28T01:21:02.442Z,98498.09
2022-09-28T01:24:10.288Z,98494.31
2022-09-28T01:26:51.206Z,98492.80
2022-09-28T01:29:21.751Z,98491.33
2022-09-28T01:32:25.951Z,98494.46
2022-09-28T01:35:09.916Z,98494.83
2022-09-28T01:37:55.238Z,98490.44
2022-09-28T01:40:25.357Z,98488.85
2022-09-28T01:43:01.257Z,98488.58
2022-09-28T01:45:33.414Z,98487.08
2022-09-28T01:48:04.853Z,98484.45
2022-09-28T01:50:38.066Z,98476.71
2022-09-28T01:53:38.937Z,98472.89
2022-09-28T01:56:14.524Z,98471.74
2022-09-28T01:58:44.240Z,98473.30
2022-09-28T02:01:16.826Z,98469.77
2022-09-28T02:03:51.202Z,98477.91
2022-09-28T02:06:25.508Z,98475.16
2022-09-28T02:08:58.217Z,98476.21
2022-09-28T02:11:37.837Z,98476.14
2022-09-28T02:14:10.090Z,98476.32
2022-09-28T02:16:43.971Z,98474.16
2022-09-28T02:19:18.162Z,98475.62
2022-09-28T02:21:54.029Z,98476.09
2022-09-28T02:24:55.667Z,98474.33
2022-09-28T02:27:35.812Z,98479.33
2022-09-28T02:30:05.536Z,98478.08
2022-09-28T02:32:35.627Z,98477.85
2022-09-28T02:35:03.779Z,98477.06
2022-09-28T02:37:32.373Z,98471.94
2022-09-28T02:40:05.239Z,98472.23
2022-09-28T02:42:54.257Z,98471.67
2022-09-28T02:45:41.481Z,98470.90
2022-09-28T02:48:43.923Z,98473.11
2022-09-28T02:51:24.009Z,98473.61
2022-09-28T02:54:18.916Z,98467.63
2022-09-28T02:57:03.971Z,98465.55
2022-09-28T02:59:46.945Z,98464.50
2022-09-28T03:02:25.999Z,98465.77
2022-09-28T03:05:11.467Z,98466.16
2022-09-28T03:07:52.339Z,98464.29
2022-09-28T03:10:31.107Z,98463.02
2022-09-28T03:12:59.274Z,98462.67
2022-09-28T03:15:30.559Z,98464.61
2022-09-28T03:17:58.976Z,98465.83
2022-09-28T03:20:28.275Z,98468.27
2022-09-28T03:23:20.093Z,98461.73
2022-09-28T03:25:44.347Z,98466.37
2022-09-28T03:28:12.225Z,98467.66
2022-09-28T03:30:41.687Z,98469.76
2022-09-28T03:33:10.861Z,98475.48
2022-09-28T03:35:40.199Z,98471.89
2022-09-28T03:38:10.715Z,98472.55
2022-09-28T03:40:39.034Z,98469.98
2022-09-28T03:43:07.365Z,98472.52
2022-09-28T03:45:35.561Z,98474.20
2022-09-28T03:48:03.777Z,98474.46
2022-09-28T03:50:31.877Z,98475.09
2022-09-28T03:53:05.155Z,98478.02
2022-09-28T03:55:32.995Z,98477.20
2022-09-28T03:58:01.147Z,98472.15
2022-09-28T04:00:31.103Z,98471.88
2022-09-28T04:02:59.230Z,98470.97
2022-09-28T04:05:27.217Z,98467.58
2022-09-28T04:07:58.565Z,98466.04
2022-09-28T04:10:26.795Z,98465.61
2022-09-28T04:12:58.157Z,98464.30
2022-09-28T04:15:26.061Z,98465.66
2022-09-28T04:17:54.024Z,98464.55
2022-09-28T04:20:48.296Z,98458.88
2022-09-28T04:23:16.871Z,98455.37
2022-09-28T04:25:47.818Z,98455.86
2022-09-28T04:28:34.389Z,98455.66
2022-09-28T04:31:02.280Z,98453.58
2022-09-28T04:33:31.683Z,98457.39
2022-09-28T04:36:00.621Z,98453.83
2022-09-28T04:38:51.393Z,98453.70
2022-09-28T04:41:18.610Z,98450.08
2022-09-28T04:43:47.456Z,98450.40
2022-09-28T04:46:20.342Z,98450.86
2022-09-28T04:49:05.465Z,98456.90
2022-09-28T04:51:50.151Z,98459.70
2022-09-28T04:54:21.772Z,98458.63
2022-09-28T04:56:49.945Z,98462.84
2022-09-28T04:59:39.589Z,98464.49
2022-09-28T05:02:08.030Z,98461.20
2022-09-28T05:04:41.686Z,98459.73
2022-09-28T05:07:17.776Z,98459.48
2022-09-28T05:09:46.261Z,98459.25
2022-09-28T05:12:17.176Z,98454.38
2022-09-28T05:14:45.177Z,98455.40
2022-09-28T05:17:13.162Z,98453.48
2022-09-28T05:20:10.485Z,98457.98
2022-09-28T05:22:38.458Z,98452.26
2022-09-28T05:25:09.436Z,98447.81
2022-09-28T05:27:48.901Z,98450.58
2022-09-28T05:30:43.674Z,98446.58
2022-09-28T05:33:39.016Z,98448.50
2022-09-28T05:36:14.629Z,98449.73
2022-09-28T05:38:43.781Z,98451.80
2022-09-28T05:41:13.269Z,98451.70
2022-09-28T05:43:45.698Z,98445.86
2022-09-28T05:46:14.738Z,98442.19
2022-09-28T05:48:43.181Z,98437.20
2022-09-28T05:51:11.262Z,98438.70
2022-09-28T05:53:39.155Z,98438.34
2022-09-28T05:56:09.306Z,98437.10
2022-09-28T05:58:39.716Z,98437.27
2022-09-28T06:01:12.661Z,98439.08
2022-09-28T06:03:40.666Z,98433.70
2022-09-28T06:06:09.150Z,98436.20
2022-09-28T06:08:37.565Z,98431.90
2022-09-28T06:11:27.147Z,98439.31
2022-09-28T06:13:56.298Z,98442.02
2022-09-28T06:16:31.007Z,98444.61
2022-09-28T06:19:01.579Z,98447.33
2022-09-28T06:21:52.383Z,98449.64
2022-09-28T06:24:20.323Z,98452.13
2022-09-28T06:26:48.716Z,98457.58
2022-09-28T06:29:19.871Z,98462.49
2022-09-28T06:31:48.517Z,98461.55
2022-09-28T06:34:18.055Z,98465.63
2022-09-28T06:36:46.139Z,98459.70
2022-09-28T06:39:14.386Z,98454.63
2022-09-28T06:41:42.495Z,98448.11
2022-09-28T06:44:18.007Z,98441.45
2022-09-28T06:47:04.810Z,98433.92
2022-09-28T06:49:58.116Z,98432.85
2022-09-28T06:52:29.559Z,98431.25
2022-09-28T06:55:18.170Z,98425.63
2022-09-28T06:57:59.398Z,98418.91
2022-09-28T07:00:31.092Z,98405.42
2022-09-28T07:02:59.284Z,98403.54
2022-09-28T07:05:59.387Z,98402.84
2022-09-28T07:09:03.787Z,98397.73
2022-09-28T07:12:00.108Z,98393.74
2022-09-28T07:14:47.873Z,98394.92
2022-09-28T07:17:16.618Z,98400.14
2022-09-28T07:19:44.663Z,98398.05
2022-09-28T07:22:18.579Z,98399.22
2022-09-28T07:24:48.991Z,98405.69
2022-09-28T07:27:38.045Z,98407.50
2022-09-28T07:30:28.274Z,98414.02
2022-09-28T07:33:17.632Z,98416.09
2022-09-28T07:36:08.504Z,98408.84
2022-09-28T07:38:36.473Z,98414.45
2022-09-28T07:41:11.661Z,98411.80
2022-09-28T07:43:49.788Z,98402.06
2022-09-28T07:46:18.040Z,98401.05
2022-09-28T07:48:58.396Z,98399.14
2022-09-28T07:51:58.863Z,98399.24
2022-09-28T07:54:31.269Z,98400.73
2022-09-28T07:56:59.461Z,98400.31
2022-09-28T07:59:41.272Z,98395.23
2022-09-28T08:02:28.128Z,98395.41
2022-09-28T08:04:56.472Z,98393.80
2022-09-28T08:07:25.709Z,98395.39
2022-09-28T08:10:06.176Z,98395.16
2022-09-28T08:12:41.327Z,98397.52
2022-09-28T08:15:37.179Z,98394.61
2022-09-28T08:18:17.216Z,98399.05
2022-09-28T08:21:04.889Z,98397.10
2022-09-28T08:23:37.074Z,98394.94
2022-09-28T08:26:15.184Z,98392.67
2022-09-28T08:28:46.823Z,98392.91
2022-09-28T08:31:51.715Z,98395.27
2022-09-28T08:34:49.148Z,98393.33
2022-09-28T08:37:49.861Z,98388.80
2022-09-28T08:41:04.464Z,98385.67
2022-09-28T08:43:52.583Z,98380.08
2022-09-28T08:46:48.816Z,98381.34
2022-09-28T08:49:57.098Z,98380.70
2022-09-28T08:52:53.342Z,98383.27
2022-09-28T08:55:48.032Z,98378.50
2022-09-28T08:58:24.505Z,98377.77
2022-09-28T09:00:54.671Z,98374.61
2022-09-28T09:03:32.587Z,98371.77
2022-09-28T09:07:00.738Z,98373.30
2022-09-28T09:09:45.733Z,98369.40
2022-09-28T09:12:41.880Z,98362.60
2022-09-28T09:20:03.006Z,98361.30
2022-09-28T09:23:00.849Z,98364.91
2022-09-28T09:25:41.085Z,98355.61
2022-09-28T09:28:32.800Z,98351.30
2022-09-28T09:31:43.209Z,98351.02
2022-09-28T09:34:27.254Z,98344.95
2022-09-28T09:37:42.361Z,98350.71
2022-09-28T09:41:08.812Z,98345.91
2022-09-28T09:44:57.270Z,98350.30
2022-09-28T09:47:55.599Z,98344.30
2022-09-28T09:50:57.898Z,98339.63
2022-09-28T09:53:38.389Z,98336.15
2022-09-28T09:56:14.756Z,98336.57
2022-09-28T09:59:12.122Z,98335.91
2022-09-28T10:01:58.587Z,98339.17
2022-09-28T10:04:44.610Z,98342.75
2022-09-28T10:07:25.937Z,98342.84
2022-09-28T10:09:57.049Z,98348.94
2022-09-28T10:12:40.692Z,98341.38
2022-09-28T10:15:14.998Z,98339.90
2022-09-28T10:17:49.831Z,98337.37
2022-09-28T10:20:38.594Z,98341.13
2022-09-28T10:23:31.649Z,98342.51
2022-09-28T10:26:25.319Z,98345.61
2022-09-28T10:29:13.140Z,98342.64
2022-09-28T10:31:48.310Z,98351.53
2022-09-28T10:34:28.694Z,98352.41
2022-09-28T10:37:05.472Z,98357.36
2022-09-28T10:39:55.758Z,98351.21
2022-09-28T10:42:30.629Z,98341.57
2022-09-28T10:45:04.831Z,98343.67
2022-09-28T10:47:43.908Z,98345.73
2022-09-28T10:50:23.230Z,98347.98
2022-09-28T10:53:11.354Z,98341.27
2022-09-28T10:56:18.860Z,98348.44
2022-09-28T10:58:48.342Z,98350.38
2022-09-28T11:01:31.929Z,98346.23
2022-09-28T11:04:05.358Z,98349.30
2022-09-28T11:06:38.901Z,98348.75
2022-09-28T11:09:21.198Z,98348.54
2022-09-28T11:11:49.150Z,98356.03
2022-09-28T11:14:44.387Z,98353.48
2022-09-28T11:17:30.515Z,98356.61
2022-09-28T11:20:27.789Z,98365.52
2022-09-28T11:23:00.578Z,98369.17
2022-09-28T11:25:32.650Z,98375.85
2022-09-28T11:28:04.496Z,98378.88
2022-09-28T11:30:54.771Z,98378.01
2022-09-28T11:34:12.838Z,98376.06
2022-09-28T11:37:04.801Z,98379.34
2022-09-28T11:39:32.637Z,98380.05
2022-09-28T11:42:16.101Z,98384.56
2022-09-28T11:44:52.805Z,98384.40
2022-09-28T11:47:41.798Z,98382.83
2022-09-28T11:50:27.971Z,98383.63
2022-09-28T11:53:17.433Z,98387.96
2022-09-28T11:55:50.131Z,98388.04
2022-09-28T11:58:38.183Z,98388.88
2022-09-28T12:01:31.289Z,98382.73
2022-09-28T12:04:28.930Z,98377.21
2022-09-28T12:07:00.247Z,98371.84
2022-09-28T12:10:05.184Z,98367.91
2022-09-28T12:12:38.892Z,98366.31
2022-09-28T12:18:56.507Z,98360.80
2022-09-28T12:21:24.374Z,98359.79
2022-09-28T12:23:56.146Z,98351.57
2022-09-28T12:26:37.301Z,98348.32
2022-09-28T12:29:13.158Z,98349.17
2022-09-28T12:32:05.009Z,98344.63
2022-09-28T12:34:32.928Z,98341.59
2022-09-28T12:37:03.529Z,98339.23
2022-09-28T12:39:58.068Z,98329.54
2022-09-28T12:42:54.689Z,98318.42
2022-09-28T12:46:09.917Z,98309.19
2022-09-28T12:52:06.706Z,98295.41
2022-09-28T12:54:59.164Z,98296.29
2022-09-28T12:57:33.092Z,98298.70
2022-09-28T13:00:24.749Z,98305.75
2022-09-28T13:03:07.130Z,98312.36
2022-09-28T13:05:56.826Z,98305.27
2022-09-28T13:08:53.412Z,98299.43
2022-09-28T13:11:34.366Z,98293.23
2022-09-28T13:14:29.019Z,98290.15
2022-09-28T13:17:01.272Z,98288.13
2022-09-28T13:19:38.510Z,98286.67
2022-09-28T13:22:44.529Z,98289.59
2022-09-28T13:25:22.750Z,98290.09
2022-09-28T13:27:52.834Z,98287.05
2022-09-28T13:30:21.871Z,98295.90
2022-09-28T13:32:50.047Z,98297.81
2022-09-28T13:35:21.613Z,98287.52
2022-09-28T13:38:15.314Z,98272.83
2022-09-28T13:41:05.270Z,98295.42
2022-09-28T13:43:42.150Z,98289.15
2022-09-28T13:46:36.328Z,98279.77
2022-09-28T13:49:19.266Z,98284.39
2022-09-28T13:52:02.863Z,98297.45
2022-09-28T13:54:41.349Z,98308.64
2022-09-28T13:57:10.029Z,98284.48
2022-09-28T13:59:51.521Z,98283.77
2022-09-28T14:02:31.754Z,98283.27
2022-09-28T14:05:06.541Z,98290.70
2022-09-28T14:07:34.468Z,98291.74
2022-09-28T14:10:21.474Z,98295.50
2022-09-28T14:12:53.528Z,98297.74
2022-09-28T14:15:30.693Z,98291.27
2022-09-28T14:17:58.530Z,98284.33
2022-09-28T14:20:27.546Z,98278.32
2022-09-28T14:23:00.973Z,98274.05
2022-09-28T14:25:32.093Z,98275.93
2022-09-28T14:28:29.986Z,98273.60
2022-09-28T14:30:59.682Z,98275.02
2022-09-28T14:33:35.150Z,98276.76
2022-09-28T14:36:06.680Z,98278.70
2022-09-28T14:38:56.550Z,98276.17
2022-09-28T14:41:35.112Z,98277.36
2022-09-28T14:44:08.422Z,98270.71
2022-09-28T14:46:45.429Z,98270.52
2022-09-28T14:49:24.921Z,98273.26
2022-09-28T14:51:58.505Z,98265.56
2022-09-28T14:54:34.907Z,98260.48
2022-09-28T14:57:15.531Z,98255.61
2022-09-28T14:59:46.294Z,98262.09
2022-09-28T15:02:26.071Z,98259.58
2022-09-28T15:05:00.125Z,98253.38
2022-09-28T15:07:48.120Z,98262.39
2022-09-28T15:10:27.541Z,98266.52
2022-09-28T15:12:57.219Z,98267.44
2022-09-28T15:15:33.737Z,98267.27
2022-09-28T15:18:18.544Z,98268.01
2022-09-28T15:20:48.337Z,98269.73
2022-09-28T15:23:30.236Z,98268.45
2022-09-28T15:25:58.468Z,98273.02
2022-09-28T15:28:26.633Z,98274.58
2022-09-28T15:31:06.965Z,98275.13
2022-09-28T15:33:59.850Z,98281.34
2022-09-28T15:36:30.555Z,98284.30
2022-09-28T15:39:04.110Z,98282.79
2022-09-28T15:41:33.537Z,98285.58
2022-09-28T15:44:27.266Z,98287.29
2022-09-28T15:47:06.849Z,98288.13
2022-09-28T15:49:53.499Z,98289.91
2022-09-28T15:52:47.069Z,98287.82
2022-09-28T15:55:25.811Z,98290.66
2022-09-28T15:58:12.602Z,98297.48
2022-09-28T16:00:40.506Z,98298.80
2022-09-28T16:03:08.795Z,98307.53
2022-09-28T16:05:39.772Z,98307.58
2022-09-28T16:08:22.083Z,98311.18
2022-09-28T16:11:09.191Z,98315.02
2022-09-28T16:13:46.699Z,98314.92
2022-09-28T16:16:15.954Z,98317.29
2022-09-28T16:18:48.267Z,98320.05
2022-09-28T16:21:44.250Z,98316.13
2022-09-28T16:24:24.725Z,98313.36
2022-09-28T16:26:57.224Z,98314.17
2022-09-28T16:29:32.641Z,98316.39
2022-09-28T16:32:26.657Z,98318.84
2022-09-28T16:35:10.887Z,98320.39
2022-09-28T16:37:42.710Z,98317.21
2022-09-28T16:40:12.981Z,98319.31
2022-09-28T16:42:48.175Z,98328.10
2022-09-28T16:45:23.342Z,98327.50
2022-09-28T16:47:55.836Z,98331.22
2022-09-28T16:50:24.815Z,98337.27
2022-09-28T16:53:30.352Z,98330.70
2022-09-28T16:55:58.743Z,98327.11
2022-09-28T16:58:28.009Z,98329.22
2022-09-28T17:00:56.524Z,98328.73
2022-09-28T17:03:25.331Z,98331.04
2022-09-28T17:05:53.747Z,98336.91
2022-09-28T17:08:23.869Z,98335.89
2022-09-28T17:13:47.717Z,98346.81
2022-09-28T17:19:20.155Z,98355.75
2022-09-28T17:21:48.878Z,98359.84
2022-09-28T17:24:17.684Z,98360.72
2022-09-28T17:26:49.998Z,98364.96
2022-09-28T17:29:18.651Z,98373.95
2022-09-28T17:31:47.892Z,98374.85
2022-09-28T17:34:16.376Z,98379.93
2022-09-28T17:36:45.024Z,98385.89
2022-09-28T17:39:15.071Z,98390.02
2022-09-28T17:41:43.624Z,98396.90
2022-09-28T17:44:16.396Z,98398.63
2022-09-28T17:46:49.756Z,98403.88
2022-09-28T17:49:17.682Z,98403.79
2022-09-28T17:51:45.769Z,98409.46
2022-09-28T17:54:16.888Z,98408.96
2022-09-28T17:56:46.279Z,98409.13
2022-09-28T17:59:17.480Z,98412.56
2022-09-28T18:01:45.543Z,98425.05
2022-09-28T18:04:33.380Z,98422.08
2022-09-28T18:07:02.791Z,98429.81
2022-09-28T18:09:30.637Z,98430.35
2022-09-28T18:12:01.016Z,98436.99
2022-09-28T18:14:29.122Z,98442.54
2022-09-28T18:16:57.297Z,98441.28
2022-09-28T18:19:28.648Z,98442.37
2022-09-28T18:21:59.927Z,98448.16
2022-09-28T18:24:28.090Z,98451.84
2022-09-28T18:26:55.902Z,98452.15
2022-09-28T18:29:23.966Z,98448.81
2022-09-28T18:31:52.132Z,98451.44
2022-09-28T18:34:20.054Z,98456.80
2022-09-28T18:36:48.336Z,98458.06
2022-09-28T18:39:16.143Z,98460.83
2022-09-28T18:41:43.902Z,98464.68
2022-09-28T18:44:11.666Z,98466.73
2022-09-28T18:46:42.637Z,98464.27
2022-09-28T18:49:11.184Z,98467.95
2022-09-28T18:51:39.016Z,98469.93
2022-09-28T18:54:07.713Z,98477.08
2022-09-28T18:56:38.035Z,98479.65
2022-09-28T18:59:17.413Z,98482.26
2022-09-28T19:01:46.632Z,98486.98
2022-09-28T19:04:15.339Z,98493.29
2022-09-28T19:06:44.801Z,98491.93
2022-09-28T19:09:13.433Z,98499.05
2022-09-28T19:11:43.941Z,98499.92
2022-09-28T19:14:15.132Z,98499.61
2022-09-28T19:16:44.469Z,98499.39
2022-09-28T19:19:14.705Z,98504.70
2022-09-28T19:21:44.949Z,98502.16
2022-09-28T19:24:15.736Z,98503.35
2022-09-28T19:26:44.374Z,98512.67
2022-09-28T19:29:12.936Z,98515.92
2022-09-28T19:31:43.244Z,98513.48
2022-09-28T19:34:13.502Z,98514.06
2022-09-28T19:36:42.632Z,98516.01
2022-09-28T19:39:14.571Z,98523.69
2022-09-28T19:41:51.507Z,98526.27
2022-09-28T19:44:27.639Z,98528.85
2022-09-28T19:47:06.837Z,98527.99
2022-09-28T19:49:38.048Z,98530.86
2022-09-28T19:52:16.099Z,98533.45
2022-09-28T19:55:01.015Z,98536.62
2022-09-28T19:57:31.115Z,98537.85
2022-09-28T20:00:03.266Z,98543.89
2022-09-28T20:02:36.314Z,98548.72
2022-09-28T20:05:04.452Z,98549.31
2022-09-28T20:07:34.210Z,98552.41
2022-09-28T20:10:02.244Z,98555.44
2022-09-28T20:12:30.471Z,98554.32
2022-09-28T20:14:58.289Z,98553.58
2022-09-28T20:17:26.118Z,98557.15
2022-09-28T20:19:54.003Z,98558.61
2022-09-28T20:22:21.950Z,98566.52
2022-09-28T20:24:49.754Z,98569.23
2022-09-28T20:27:17.621Z,98578.38
2022-09-28T20:29:45.434Z,98574.38
2022-09-28T20:32:14.267Z,98577.06
2022-09-28T20:34:42.081Z,98579.73
2022-09-28T20:37:09.876Z,98582.93
2022-09-28T20:39:40.450Z,98585.09
2022-09-28T20:42:11.990Z,98588.38
2022-09-28T20:44:39.746Z,98590.34
2022-09-28T20:47:07.526Z,98591.16
2022-09-28T20:49:35.354Z,98595.60
2022-09-28T20:52:03.230Z,98596.69
2022-09-28T20:54:31.034Z,98601.15
2022-09-28T20:56:58.870Z,98600.77
2022-09-28T20:59:27.758Z,98606.92
2022-09-28T21:01:55.930Z,98610.01
2022-09-28T21:04:24.235Z,98612.30
2022-09-28T21:06:53.138Z,98615.21
2022-09-28T21:09:20.882Z,98620.05
2022-09-28T21:11:48.664Z,98622.62
2022-09-28T21:14:16.499Z,98625.89
2022-09-28T21:16:44.326Z,98629.86
2022-09-28T21:19:12.088Z,98633.45
2022-09-28T21:21:39.884Z,98636.14
2022-09-28T21:24:08.270Z,98638.45
2022-09-28T21:26:36.420Z,98645.00
2022-09-28T21:29:06.566Z,98649.55
2022-09-28T21:31:39.577Z,98656.02
2022-09-28T21:34:13.295Z,98655.65
2022-09-28T21:36:43.350Z,98656.25
2022-09-28T21:39:11.104Z,98658.10
2022-09-28T21:41:39.386Z,98661.23
2022-09-28T21:44:08.186Z,98661.35
2022-09-28T21:46:37.091Z,98657.29
2022-09-28T21:49:07.520Z,98657.05
2022-09-28T21:51:35.769Z,98657.35
2022-09-28T21:54:03.821Z,98657.86
2022-09-28T21:56:31.773Z,98659.34
2022-09-28T21:59:01.201Z,98662.81
2022-09-28T22:01:29.333Z,98661.77
2022-09-28T22:03:57.507Z,98662.23
2022-09-28T22:06:29.673Z,98665.13
2022-09-28T22:08:57.389Z,98665.71
2022-09-28T22:11:27.778Z,98670.30
2022-09-28T22:13:58.035Z,98669.04
2022-09-28T22:16:28.462Z,98670.59
2022-09-28T22:18:57.146Z,98673.64
2022-09-28T22:21:27.724Z,98673.68
2022-09-28T22:24:01.076Z,98678.09
2022-09-28T22:26:31.757Z,98677.83
2022-09-28T22:29:01.936Z,98676.25
2022-09-28T22:31:35.162Z,98674.51
2022-09-28T22:34:03.762Z,98676.59
2022-09-28T22:36:32.541Z,98676.37
2022-09-28T22:39:00.516Z,98676.11
2022-09-28T22:41:28.485Z,98685.58
2022-09-28T22:43:56.785Z,98688.15
2022-09-28T22:46:26.783Z,98688.30
2022-09-28T22:48:56.730Z,98690.80
2022-09-28T22:51:26.120Z,98696.59
2022-09-28T22:53:56.554Z,98698.96
2022-09-28T22:56:24.623Z,98700.73
2022-09-28T22:58:52.484Z,98696.97
2022-09-28T23:01:55.878Z,98698.69
2022-09-28T23:04:23.956Z,98707.38
2022-09-28T23:06:53.211Z,98710.11
2022-09-28T23:09:21.005Z,98709.09
2022-09-28T23:11:48.897Z,98712.65
2022-09-28T23:14:16.753Z,98716.98
2022-09-28T23:16:44.590Z,98715.63
2022-09-28T23:19:12.462Z,98716.52
2022-09-28T23:21:40.817Z,98719.67
2022-09-28T23:24:11.081Z,98721.54
2022-09-28T23:26:43.130Z,98721.43
2022-09-28T23:29:11.632Z,98722.30
2022-09-28T23:31:41.168Z,98723.77
2022-09-28T23:34:11.088Z,98721.60
2022-09-28T23:36:39.679Z,98723.66
2022-09-28T23:39:09.662Z,98721.05
2022-09-28T23:41:40.000Z,98723.90
2022-09-28T23:44:08.125Z,98719.10
2022-09-28T23:46:36.297Z,98722.15
2022-09-28T23:49:07.665Z,98718.13
2022-09-28T23:51:37.968Z,98714.56
2022-09-28T23:54:06.812Z,98715.36
2022-09-28T23:56:34.738Z,98713.11
2022-09-28T23:59:06.089Z,98714.38
